Time;durP1;ratioP1;P1;durP2;ratioP2;P2;SDS_P1;SDS_P2;PMS_P1;PMS_P2;Temp;Humidity;BMP_temperature;BMP_pressure;BME280_temperature;BME280_humidity;BME280_pressure;Samples;Min_cycle;Max_cycle;Signal;HPM_P1;HPM_P2
2024/01/29 00:02:24;;;;;;;5.70;3.00;;;15.80;99.90;;;;;;5050282;28;20041;-80
2024/01/29 00:04:50;;;;;;;4.23;2.73;;;15.80;99.90;;;;;;5050237;28;20382;-78
2024/01/29 00:07:15;;;;;;;4.33;2.77;;;15.80;99.90;;;;;;5050338;28;20082;-78
2024/01/29 00:09:41;;;;;;;5.77;3.30;;;15.80;99.90;;;;;;5050152;28;20021;-78
2024/01/29 00:12:07;;;;;;;3.53;2.50;;;15.80;99.90;;;;;;5050091;28;20028;-79
2024/01/29 00:14:33;;;;;;;3.90;2.93;;;15.80;99.90;;;;;;5051380;28;20144;-78
2024/01/29 00:17:00;;;;;;;5.68;2.85;;;15.70;99.90;;;;;;5054046;28;20083;-78
2024/01/29 00:19:26;;;;;;;2.95;2.45;;;15.70;99.90;;;;;;5054044;28;20033;-79
2024/01/29 00:21:52;;;;;;;6.57;3.33;;;15.70;99.90;;;;;;5053533;28;20036;-79
2024/01/29 00:24:18;;;;;;;3.97;3.00;;;15.70;99.90;;;;;;5054063;28;20029;-80
2024/01/29 00:26:44;;;;;;;5.05;2.97;;;15.70;99.90;;;;;;5050058;28;20033;-78
2024/01/29 00:29:10;;;;;;;5.47;3.03;;;15.70;99.90;;;;;;5053617;28;20376;-79
2024/01/29 00:31:36;;;;;;;7.50;2.88;;;15.70;99.90;;;;;;5052976;28;20040;-79
2024/01/29 00:34:01;;;;;;;3.10;2.80;;;15.70;99.90;;;;;;5054292;28;20033;-78
2024/01/29 00:36:28;;;;;;;3.43;2.40;;;15.60;99.90;;;;;;5052597;28;20071;-78
2024/01/29 00:38:54;;;;;;;4.47;2.50;;;15.60;99.90;;;;;;5053462;28;20033;-78
2024/01/29 00:41:19;;;;;;;4.88;2.55;;;15.60;99.90;;;;;;5053250;28;20411;-78
2024/01/29 00:43:45;;;;;;;4.80;2.70;;;15.60;99.90;;;;;;5053470;28;20067;-78
2024/01/29 00:46:11;;;;;;;3.17;2.20;;;15.60;99.90;;;;;;5053191;28;20033;-79
2024/01/29 00:48:37;;;;;;;3.20;2.53;;;15.60;99.90;;;;;;5052810;28;20025;-79
2024/01/29 00:51:03;;;;;;;4.53;2.60;;;15.60;99.90;;;;;;5053129;28;20036;-79
2024/01/29 00:53:29;;;;;;;5.78;3.10;;;15.60;99.90;;;;;;5052803;28;20120;-78
2024/01/29 00:55:55;;;;;;;3.50;2.80;;;15.60;99.90;;;;;;5053036;28;20112;-79
2024/01/29 00:58:21;;;;;;;3.80;2.30;;;15.60;99.90;;;;;;5052898;28;20040;-79
2024/01/29 01:00:50;;;;;;;3.90;2.50;;;15.50;99.90;;;;;;5052746;28;20462;-78
2024/01/29 01:03:16;;;;;;;4.35;2.88;;;15.50;99.90;;;;;;5052822;28;20045;-78
2024/01/29 01:05:42;;;;;;;3.07;2.47;;;15.50;99.90;;;;;;5052361;28;20055;-79
2024/01/29 01:08:07;;;;;;;4.57;2.97;;;15.50;99.90;;;;;;5046517;28;20080;-79
2024/01/29 01:10:33;;;;;;;4.10;2.50;;;15.50;99.90;;;;;;5052720;28;20417;-77
2024/01/29 01:12:59;;;;;;;4.50;2.40;;;15.50;99.90;;;;;;5052611;28;20040;-78
2024/01/29 01:15:25;;;;;;;4.25;2.60;;;15.50;99.90;;;;;;5051962;28;20021;-78
2024/01/29 01:17:51;;;;;;;4.50;2.63;;;15.50;99.90;;;;;;5052473;28;20091;-78
2024/01/29 01:20:17;;;;;;;3.47;2.17;;;15.50;99.90;;;;;;5052828;28;20071;-79
2024/01/29 01:22:42;;;;;;;2.50;1.87;;;15.40;99.90;;;;;;5046884;28;20041;-78
2024/01/29 01:25:08;;;;;;;3.43;2.27;;;15.40;99.90;;;;;;5052620;28;20035;-77
2024/01/29 01:27:34;;;;;;;3.30;2.25;;;15.40;99.90;;;;;;5052492;28;20036;-78
2024/01/29 01:30:00;;;;;;;3.60;2.37;;;15.40;99.90;;;;;;5052364;28;20386;-79
2024/01/29 01:32:26;;;;;;;2.73;2.10;;;15.40;99.90;;;;;;5052545;28;20111;-78
2024/01/29 01:34:52;;;;;;;4.53;2.63;;;15.40;99.90;;;;;;5051671;28;20028;-78
2024/01/29 01:37:17;;;;;;;3.53;2.10;;;15.40;99.90;;;;;;5051808;28;20048;-79
2024/01/29 01:39:43;;;;;;;3.80;2.40;;;15.40;99.90;;;;;;5052396;28;20158;-80
2024/01/29 01:42:09;;;;;;;3.73;2.13;;;15.40;99.90;;;;;;5052266;28;20055;-78
2024/01/29 01:44:35;;;;;;;2.50;1.97;;;15.40;99.90;;;;;;5047267;28;20029;-78
2024/01/29 01:47:01;;;;;;;3.53;2.63;;;15.40;99.90;;;;;;5050624;28;20726;-77
2024/01/29 01:49:31;;;;;;;4.10;2.50;;;15.40;99.90;;;;;;5052022;28;20029;-80
2024/01/29 01:51:57;;;;;;;3.05;2.00;;;15.40;99.90;;;;;;5051451;28;20028;-79
2024/01/29 01:54:23;;;;;;;4.65;2.25;;;15.30;99.90;;;;;;5050149;28;20623;-77
2024/01/29 01:56:50;;;;;;;3.55;1.90;;;15.30;99.90;;;;;;5051695;28;20079;-79
2024/01/29 01:59:18;;;;;;;2.92;2.08;;;15.30;99.90;;;;;;5051912;28;20036;-80
2024/01/29 02:01:45;;;;;;;3.65;1.85;;;15.30;99.90;;;;;;5050054;28;20095;-78
2024/01/29 02:04:11;;;;;;;;;;;15.30;99.90;;;;;;5051090;28;20081;-79
2024/01/29 02:06:37;;;;;;;2.90;2.23;;;15.30;99.90;;;;;;5052094;28;20007;-78
2024/01/29 02:09:03;;;;;;;3.25;2.08;;;15.30;99.90;;;;;;5051403;28;20033;-78
2024/01/29 02:11:29;;;;;;;2.23;1.90;;;15.20;99.90;;;;;;5051617;28;20029;-79
2024/01/29 02:13:54;;;;;;;4.13;2.00;;;15.20;99.90;;;;;;5051340;28;20087;-79
2024/01/29 02:16:20;;;;;;;3.63;2.30;;;15.20;99.90;;;;;;5049338;28;20036;-77
2024/01/29 02:18:46;;;;;;;5.40;2.33;;;15.20;99.90;;;;;;5049348;28;20051;-78
2024/01/29 02:21:11;;;;;;;4.23;2.33;;;15.20;99.90;;;;;;5051158;28;20037;-78
2024/01/29 02:23:37;;;;;;;4.73;2.33;;;15.20;99.90;;;;;;5052418;28;20035;-78
2024/01/29 02:26:03;;;;;;;4.80;2.20;;;15.20;99.90;;;;;;5050949;28;20090;-79
2024/01/29 02:28:29;;;;;;;2.73;1.93;;;15.20;99.90;;;;;;5052345;28;20075;-78
2024/01/29 02:30:54;;;;;;;2.37;1.73;;;15.20;99.90;;;;;;5051561;28;20033;-78
2024/01/29 02:33:20;;;;;;;3.50;2.10;;;15.20;99.90;;;;;;5050594;28;20458;-79
2024/01/29 02:35:46;;;;;;;3.13;2.20;;;15.10;99.90;;;;;;5050868;28;20082;-79
2024/01/29 02:38:12;;;;;;;1.70;1.60;;;15.10;99.90;;;;;;5049909;28;20167;-79
2024/01/29 02:40:37;;;;;;;3.97;1.77;;;15.10;99.90;;;;;;5050984;28;20021;-78
2024/01/29 02:43:03;;;;;;;4.03;2.00;;;15.10;99.90;;;;;;5050405;28;20128;-78
2024/01/29 02:45:29;;;;;;;3.33;2.03;;;15.10;99.90;;;;;;5050747;28;20059;-78
2024/01/29 02:47:55;;;;;;;4.97;2.37;;;15.10;99.90;;;;;;5048686;28;20031;-79
2024/01/29 02:50:22;;;;;;;3.37;1.70;;;15.10;99.90;;;;;;5050759;28;20021;-78
2024/01/29 02:52:49;;;;;;;2.67;1.70;;;15.10;99.90;;;;;;5048085;28;20489;-79
2024/01/29 02:55:14;;;;;;;3.15;2.17;;;15.10;99.90;;;;;;5050817;28;20036;-80
2024/01/29 02:57:40;;;;;;;4.47;2.27;;;15.00;99.90;;;;;;5051052;28;20025;-79
2024/01/29 03:00:06;;;;;;;2.10;1.87;;;15.00;99.90;;;;;;5050550;28;20381;-80
2024/01/29 03:02:32;;;;;;;3.88;2.50;;;15.00;99.90;;;;;;5049195;28;20091;-78
2024/01/29 03:04:58;;;;;;;4.10;2.37;;;15.00;99.90;;;;;;5047065;28;20410;-78
2024/01/29 03:07:23;;;;;;;2.83;2.30;;;15.00;99.90;;;;;;5050123;28;20116;-79
2024/01/29 03:09:49;;;;;;;3.23;2.13;;;15.00;99.90;;;;;;5046668;28;20025;-78
2024/01/29 03:12:15;;;;;;;5.33;2.10;;;15.00;99.90;;;;;;5049913;28;20510;-79
2024/01/29 03:14:41;;;;;;;2.43;2.03;;;15.00;99.90;;;;;;5051897;28;20104;-79
2024/01/29 03:17:08;;;;;;;3.47;2.20;;;15.00;99.90;;;;;;5046187;28;20025;-78
2024/01/29 03:19:33;;;;;;;2.65;2.00;;;15.00;99.90;;;;;;5049779;28;20052;-79
2024/01/29 03:21:59;;;;;;;2.23;1.87;;;15.00;99.90;;;;;;5050397;28;20033;-80
2024/01/29 03:24:25;;;;;;;3.23;1.73;;;14.90;99.90;;;;;;5050187;28;20054;-79
2024/01/29 03:26:51;;;;;;;4.43;2.13;;;14.90;99.90;;;;;;5050366;28;20063;-78
2024/01/29 03:29:16;;;;;;;3.90;2.13;;;14.90;99.90;;;;;;5050272;28;20056;-78
2024/01/29 03:31:42;;;;;;;2.23;1.93;;;14.90;99.90;;;;;;5050037;28;20381;-79
2024/01/29 03:34:08;;;;;;;3.00;1.90;;;14.90;99.90;;;;;;5050592;28;20025;-79
2024/01/29 03:36:34;;;;;;;2.83;2.00;;;14.90;99.90;;;;;;5049503;28;20544;-79
2024/01/29 03:38:59;;;;;;;3.07;2.00;;;14.90;99.90;;;;;;5051846;28;20028;-78
2024/01/29 03:41:25;;;;;;;2.63;1.97;;;14.90;99.90;;;;;;5050307;28;21052;-78
2024/01/29 03:43:52;;;;;;;2.97;1.95;;;14.90;99.90;;;;;;5050080;28;20455;-78
2024/01/29 03:46:17;;;;;;;2.85;2.08;;;14.90;99.90;;;;;;5050109;28;20040;-79
2024/01/29 03:48:43;;;;;;;2.30;2.03;;;14.90;99.90;;;;;;5046370;28;20033;-77
2024/01/29 03:51:09;;;;;;;2.83;1.67;;;14.80;99.90;;;;;;5054434;28;20064;-79
2024/01/29 03:53:35;;;;;;;3.20;1.87;;;14.80;99.90;;;;;;5045275;28;20025;-77
2024/01/29 03:56:00;;;;;;;3.80;2.00;;;14.80;99.90;;;;;;5053990;28;20029;-79
2024/01/29 03:58:26;;;;;;;4.17;2.13;;;14.80;99.90;;;;;;5053494;28;20032;-80
2024/01/29 04:00:52;;;;;;;2.85;1.88;;;14.80;99.90;;;;;;5053939;28;20029;-78
2024/01/29 04:03:18;;;;;;;2.70;2.00;;;14.70;99.90;;;;;;5053813;28;20037;-77
2024/01/29 04:05:45;;;;;;;3.37;1.90;;;14.70;99.90;;;;;;5053913;28;20036;-78
2024/01/29 04:08:10;;;;;;;3.05;2.08;;;14.70;99.90;;;;;;5053330;28;20028;-78
2024/01/29 04:10:36;;;;;;;2.90;1.63;;;14.70;99.90;;;;;;5053403;28;20097;-78
2024/01/29 04:13:02;;;;;;;3.63;2.30;;;14.80;99.90;;;;;;5053757;28;20029;-79
2024/01/29 04:15:28;;;;;;;5.13;1.77;;;14.70;99.90;;;;;;5054420;28;20040;-78
2024/01/29 04:17:55;;;;;;;1.52;1.42;;;14.70;99.90;;;;;;5054110;28;20025;-78
2024/01/29 04:20:20;;;;;;;3.00;1.80;;;14.70;99.90;;;;;;5053684;28;20051;-78
2024/01/29 04:22:46;;;;;;;3.90;2.23;;;14.70;99.90;;;;;;5053917;28;20033;-79
2024/01/29 04:25:13;;;;;;;2.47;1.93;;;14.70;99.90;;;;;;5053967;28;20036;-78
2024/01/29 04:27:38;;;;;;;3.75;1.80;;;14.60;99.90;;;;;;5053524;28;20032;-77
2024/01/29 04:30:05;;;;;;;3.63;2.07;;;14.60;99.90;;;;;;5055087;28;20029;-77
2024/01/29 04:32:30;;;;;;;3.35;1.90;;;14.60;99.90;;;;;;5053147;28;20032;-78
2024/01/29 04:34:56;;;;;;;3.10;1.77;;;14.60;99.90;;;;;;5051094;28;20028;-79
2024/01/29 04:37:23;;;;;;;3.23;2.20;;;14.60;99.90;;;;;;5044697;28;20144;-78
2024/01/29 04:39:49;;;;;;;;;;;14.60;99.90;;;;;;5038837;28;20270;-79
2024/01/29 04:42:15;;;;;;;3.42;1.70;;;14.60;99.90;;;;;;5047694;28;19917;-79
2024/01/29 04:44:41;;;;;;;4.00;2.43;;;14.60;99.90;;;;;;5041976;28;20082;-78
2024/01/29 04:47:06;;;;;;;3.27;1.80;;;14.60;99.90;;;;;;5049827;28;20021;-77
2024/01/29 04:49:32;;;;;;;4.17;2.27;;;14.60;99.90;;;;;;5039864;28;20033;-78
2024/01/29 04:51:58;;;;;;;2.13;1.70;;;14.60;99.90;;;;;;5043522;28;20045;-79
2024/01/29 04:54:24;;;;;;;3.90;2.00;;;14.50;99.90;;;;;;5047405;28;20060;-79
2024/01/29 04:56:49;;;;;;;2.47;1.97;;;14.50;99.90;;;;;;5053108;28;20432;-78
2024/01/29 04:59:15;;;;;;;5.47;1.77;;;14.50;99.90;;;;;;5053308;28;20474;-79
2024/01/29 05:01:41;;;;;;;3.97;2.10;;;14.50;99.90;;;;;;5052586;28;20478;-78
2024/01/29 05:04:07;;;;;;;5.33;2.00;;;14.50;99.90;;;;;;5052953;28;20021;-79
2024/01/29 05:06:33;;;;;;;7.85;2.00;;;14.50;99.90;;;;;;5053163;28;20048;-81
2024/01/29 05:09:00;;;;;;;9.53;1.80;;;14.60;99.90;;;;;;5053857;28;20033;-78
2024/01/29 05:11:26;;;;;;;11.68;2.55;;;14.50;99.90;;;;;;5053048;28;20129;-79
2024/01/29 05:13:53;;;;;;;11.30;2.50;;;14.50;99.90;;;;;;5052824;28;20115;-79
2024/01/29 05:16:19;;;;;;;264.00;130.07;;;14.50;99.90;;;;;;5039033;28;20044;-80
2024/01/29 05:18:45;;;;;;;321.48;153.27;;;14.50;99.90;;;;;;5052561;28;20108;-81
2024/01/29 05:21:12;;;;;;;204.70;102.10;;;14.60;99.90;;;;;;5052523;28;20159;-78
2024/01/29 05:23:38;;;;;;;165.95;82.97;;;14.60;99.90;;;;;;5052438;28;20045;-77
2024/01/29 05:26:04;;;;;;;169.60;86.10;;;14.70;99.90;;;;;;5052671;28;20033;-78
2024/01/29 05:28:30;;;;;;;162.13;74.82;;;14.70;99.90;;;;;;5052442;28;20025;-80
2024/01/29 05:30:56;;;;;;;138.50;65.87;;;14.70;99.90;;;;;;5052086;28;20040;-78
2024/01/29 05:33:22;;;;;;;143.23;69.43;;;14.70;99.90;;;;;;5052695;28;20471;-78
2024/01/29 05:35:48;;;;;;;122.27;60.00;;;14.70;99.90;;;;;;5051985;28;20044;-78
2024/01/29 05:38:13;;;;;;;95.27;45.90;;;14.70;99.90;;;;;;5051780;28;20055;-77
2024/01/29 05:40:39;;;;;;;91.90;45.57;;;14.70;99.90;;;;;;5052293;28;20058;-79
2024/01/29 05:43:05;;;;;;;75.47;38.93;;;14.70;99.90;;;;;;5051480;28;20029;-78
2024/01/29 05:45:31;;;;;;;67.73;33.80;;;14.70;99.90;;;;;;5050807;28;20111;-78
2024/01/29 05:47:57;;;;;;;64.40;32.23;;;14.70;99.90;;;;;;5052518;28;20100;-76
2024/01/29 05:50:23;;;;;;;55.33;30.20;;;14.70;99.90;;;;;;5051649;28;20049;-76
2024/01/29 05:52:48;;;;;;;57.13;27.87;;;14.70;99.90;;;;;;5049010;28;20094;-78
2024/01/29 05:55:14;;;;;;;53.03;28.53;;;14.70;99.90;;;;;;5051199;28;20060;-76
2024/01/29 05:57:41;;;;;;;53.60;27.90;;;14.70;99.90;;;;;;5051760;28;20493;-77
2024/01/29 06:00:10;;;;;;;50.30;26.45;;;14.70;99.90;;;;;;5051228;28;20266;-77
2024/01/29 06:02:42;;;;;;;45.83;26.00;;;14.70;99.90;;;;;;5051346;28;20044;-77
2024/01/29 06:05:09;;;;;;;46.38;23.67;;;14.70;99.90;;;;;;5051378;28;20115;-79
2024/01/29 06:07:35;;;;;;;48.67;24.58;;;14.60;99.90;;;;;;5051418;28;20025;-77
2024/01/29 06:10:01;;;;;;;43.83;23.45;;;14.70;99.90;;;;;;5051340;28;20474;-77
2024/01/29 06:12:27;;;;;;;46.33;23.10;;;14.70;99.90;;;;;;5049882;28;20036;-77
2024/01/29 06:14:53;;;;;;;39.37;21.03;;;14.70;99.90;;;;;;5051473;28;20505;-77
2024/01/29 06:17:19;;;;;;;40.37;21.80;;;14.70;99.90;;;;;;5051932;28;20028;-77
2024/01/29 06:19:45;;;;;;;44.70;22.40;;;14.60;99.90;;;;;;5044682;28;20052;-77
2024/01/29 06:22:11;;;;;;;39.33;21.00;;;14.60;99.90;;;;;;5064730;28;20069;-77
2024/01/29 06:24:36;;;;;;;36.23;20.03;;;14.60;99.90;;;;;;5047151;28;20140;-77
2024/01/29 06:27:02;;;;;;;35.87;18.77;;;14.60;99.90;;;;;;5044348;28;20082;-78
2024/01/29 06:29:28;;;;;;;36.50;19.13;;;14.60;99.90;;;;;;5069317;28;20056;-76
2024/01/29 06:31:54;;;;;;;39.30;18.83;;;14.60;99.90;;;;;;5045086;28;20087;-77
2024/01/29 06:34:23;;;;;;;32.10;18.00;;;14.60;99.90;;;;;;5042132;28;20018;-76
2024/01/29 06:36:51;;;;;;;38.25;18.77;;;14.60;99.90;;;;;;5043200;28;20482;-76
2024/01/29 06:39:17;;;;;;;36.75;18.65;;;14.60;99.90;;;;;;5065783;28;20029;-77
2024/01/29 06:41:43;;;;;;;29.83;16.93;;;14.60;99.90;;;;;;5046896;28;20059;-78
2024/01/29 06:44:08;;;;;;;33.57;16.80;;;14.60;99.90;;;;;;5064084;28;20500;-76
2024/01/29 06:46:34;;;;;;;30.53;15.87;;;14.60;99.90;;;;;;5048628;28;20490;-77
2024/01/29 06:49:00;;;;;;;30.00;15.67;;;14.60;99.90;;;;;;5047006;28;20112;-77
2024/01/29 06:51:26;;;;;;;30.43;16.03;;;14.60;99.90;;;;;;5043733;28;20116;-76
2024/01/29 06:53:51;;;;;;;27.30;14.70;;;14.60;99.90;;;;;;5043639;28;20465;-77
2024/01/29 06:56:17;;;;;;;33.67;15.90;;;14.60;99.90;;;;;;5048755;28;20063;-76
2024/01/29 06:58:43;;;;;;;31.90;16.63;;;14.60;99.90;;;;;;5041444;28;20216;-75
2024/01/29 07:01:09;;;;;;;28.03;14.03;;;14.60;99.90;;;;;;5048351;28;20036;-76
2024/01/29 07:03:35;;;;;;;27.33;15.70;;;14.60;99.90;;;;;;5041797;28;20373;-76
2024/01/29 07:06:01;;;;;;;24.60;13.80;;;14.60;99.90;;;;;;5044496;28;20463;-76
2024/01/29 07:08:26;;;;;;;23.83;13.80;;;14.60;99.90;;;;;;5039369;28;20036;-77
2024/01/29 07:10:52;;;;;;;28.40;13.73;;;14.60;99.90;;;;;;5047369;28;20263;-77
2024/01/29 07:13:18;;;;;;;21.37;13.10;;;14.60;99.90;;;;;;5040752;28;20041;-76
2024/01/29 07:15:44;;;;;;;22.13;12.73;;;14.50;99.90;;;;;;5033413;28;20056;-76
2024/01/29 07:18:10;;;;;;;20.57;12.03;;;14.60;99.90;;;;;;5047388;28;20316;-76
2024/01/29 07:20:41;;;;;;;21.70;12.33;;;14.60;99.90;;;;;;5047993;28;20127;-76
2024/01/29 07:23:07;;;;;;;22.67;12.50;;;14.50;99.90;;;;;;5042220;28;20056;-76
2024/01/29 07:25:40;;;;;;;;;;;14.50;99.90;;;;;;5066170;28;20053;-76
2024/01/29 07:28:06;;;;;;;21.25;11.70;;;14.50;99.90;;;;;;5046674;28;19924;-77
2024/01/29 07:30:33;;;;;;;19.80;11.35;;;14.60;99.90;;;;;;5046128;28;20398;-76
2024/01/29 07:32:59;;;;;;;20.70;10.80;;;14.50;99.90;;;;;;5066931;28;20092;-77
2024/01/29 07:35:26;;;;;;;21.63;12.45;;;14.50;99.90;;;;;;5042800;28;20055;-77
2024/01/29 07:37:54;;;;;;;21.38;11.65;;;14.50;99.90;;;;;;5046241;28;20411;-76
2024/01/29 07:40:21;;;;;;;19.92;10.15;;;14.50;99.90;;;;;;5045052;28;20482;-77
2024/01/29 07:42:47;;;;;;;17.67;10.60;;;14.50;99.90;;;;;;5038062;28;20037;-76
2024/01/29 07:45:15;;;;;;;17.50;10.73;;;14.60;99.90;;;;;;5080220;28;20572;-77
2024/01/29 07:47:41;;;;;;;24.75;10.88;;;14.50;99.90;;;;;;5041183;28;20045;-76
2024/01/29 07:50:07;;;;;;;22.85;10.70;;;14.50;99.90;;;;;;5071992;28;20431;-77
2024/01/29 07:52:33;;;;;;;17.80;9.65;;;14.60;99.90;;;;;;5040787;28;20046;-75
2024/01/29 07:54:59;;;;;;;21.87;10.20;;;14.60;99.90;;;;;;5071873;28;20497;-76
2024/01/29 07:57:26;;;;;;;16.67;9.98;;;14.60;99.90;;;;;;5041146;28;20423;-76
2024/01/29 07:59:52;;;;;;;18.38;9.93;;;14.60;99.90;;;;;;5051419;28;20028;-75
2024/01/29 08:02:18;;;;;;;16.65;9.13;;;14.60;99.90;;;;;;5037780;28;20033;-77
2024/01/29 08:04:44;;;;;;;23.53;9.00;;;14.60;99.90;;;;;;5040100;28;20035;-77
2024/01/29 08:07:10;;;;;;;18.13;9.03;;;14.60;99.90;;;;;;5075085;28;20025;-77
2024/01/29 08:09:36;;;;;;;14.37;9.23;;;14.70;99.90;;;;;;5052161;28;20043;-77
2024/01/29 08:12:01;;;;;;;15.70;9.03;;;14.70;99.90;;;;;;5047573;28;20025;-78
2024/01/29 08:14:27;;;;;;;18.53;9.10;;;14.70;99.90;;;;;;5041287;28;20032;-79
2024/01/29 08:16:53;;;;;;;26.30;12.30;;;14.70;99.90;;;;;;5043577;28;20060;-78
2024/01/29 08:19:18;;;;;;;468.07;156.67;;;14.80;99.90;;;;;;5041107;28;20037;-77
2024/01/29 08:21:45;;;;;;;127.90;45.67;;;14.80;99.90;;;;;;5040321;28;20025;-77
2024/01/29 08:24:11;;;;;;;153.95;58.53;;;14.80;99.90;;;;;;5038594;28;20041;-77
2024/01/29 08:26:37;;;;;;;134.03;48.93;;;14.80;99.90;;;;;;5041542;28;20037;-78
2024/01/29 08:29:03;;;;;;;125.13;46.00;;;14.80;99.90;;;;;;5036091;28;20112;-77
2024/01/29 08:31:30;;;;;;;109.60;42.10;;;14.90;99.90;;;;;;5042019;28;20053;-77
2024/01/29 08:33:56;;;;;;;95.38;37.40;;;14.90;99.90;;;;;;5037095;28;20035;-77
2024/01/29 08:36:22;;;;;;;192.40;103.17;;;14.90;99.90;;;;;;5071764;28;20025;-79
2024/01/29 08:38:48;;;;;;;115.97;53.45;;;15.00;99.90;;;;;;5044233;28;20034;-77
2024/01/29 08:41:15;;;;;;;106.10;52.63;;;15.00;99.90;;;;;;5047816;28;20120;-78
2024/01/29 08:43:41;;;;;;;104.80;48.00;;;15.20;99.90;;;;;;5051064;28;20490;-78
2024/01/29 08:46:07;;;;;;;88.28;41.50;;;15.20;99.90;;;;;;5053675;28;20033;-78
2024/01/29 08:48:34;;;;;;;148.70;85.53;;;15.20;99.90;;;;;;5040762;28;20049;-78
2024/01/29 08:51:00;;;;;;;100.07;53.95;;;15.20;99.90;;;;;;5053397;28;20035;-77
2024/01/29 08:53:25;;;;;;;93.77;48.77;;;15.20;99.90;;;;;;5039857;28;20156;-78
2024/01/29 08:55:52;;;;;;;97.80;48.60;;;15.10;99.90;;;;;;5043811;28;20045;-78
2024/01/29 08:58:18;;;;;;;92.00;46.50;;;15.10;99.90;;;;;;5045454;28;20115;-78
2024/01/29 09:00:44;;;;;;;79.13;42.13;;;15.10;99.90;;;;;;5035824;28;20030;-79
2024/01/29 09:03:10;;;;;;;97.67;44.30;;;15.20;99.90;;;;;;5048626;28;20091;-77
2024/01/29 09:05:38;;;;;;;79.28;39.90;;;15.20;99.90;;;;;;5043919;28;20079;-78
2024/01/29 09:08:05;;;;;;;209.95;94.65;;;15.20;99.90;;;;;;5047105;28;20580;-79
2024/01/29 09:10:31;;;;;;;125.35;57.65;;;15.30;99.90;;;;;;5052841;28;20033;-79
2024/01/29 09:12:57;;;;;;;93.40;45.33;;;15.40;99.90;;;;;;5040662;28;20532;-78
2024/01/29 09:15:23;;;;;;;82.15;42.25;;;15.60;99.90;;;;;;5054461;28;20071;-77
2024/01/29 09:17:48;;;;;;;83.43;40.70;;;15.80;99.90;;;;;;5050532;28;20389;-77
2024/01/29 09:20:15;;;;;;;74.53;36.30;;;16.00;99.90;;;;;;5044576;28;20124;-77
2024/01/29 09:22:41;;;;;;;68.80;35.33;;;16.00;99.90;;;;;;5045292;28;20040;-78
2024/01/29 09:25:07;;;;;;;63.58;33.92;;;16.20;99.90;;;;;;5051061;28;20033;-77
2024/01/29 09:27:34;;;;;;;70.43;34.78;;;16.60;99.90;;;;;;5048450;28;20490;-78
2024/01/29 09:30:00;;;;;;;58.95;31.95;;;17.00;99.90;;;;;;5037001;28;20045;-77
2024/01/29 09:32:26;;;;;;;55.93;31.50;;;17.30;99.90;;;;;;5051324;28;20034;-77
2024/01/29 09:34:52;;;;;;;63.00;32.95;;;17.60;99.90;;;;;;5047840;28;20844;-78
2024/01/29 09:37:19;;;;;;;60.60;32.65;;;18.00;99.90;;;;;;5038800;28;20049;-77
2024/01/29 09:39:46;;;;;;;54.65;29.52;;;18.40;99.90;;;;;;5048147;28;20032;-78
2024/01/29 09:42:18;;;;;;;58.65;33.40;;;18.60;99.90;;;;;;5040531;28;20048;-77
2024/01/29 09:44:49;;;;;;;60.38;30.63;;;18.80;99.90;;;;;;5036853;28;20033;-78
2024/01/29 09:47:18;;;;;;;53.78;30.48;;;19.00;99.90;;;;;;5048979;28;20021;-77
2024/01/29 09:49:44;;;;;;;52.33;27.63;;;19.20;99.90;;;;;;5046353;28;20033;-78
2024/01/29 09:52:12;;;;;;;59.30;28.27;;;19.20;99.90;;;;;;5043454;28;20033;-78
2024/01/29 09:54:42;;;;;;;46.67;26.67;;;19.10;99.90;;;;;;5054897;28;20035;-77
2024/01/29 09:57:11;;;;;;;49.30;26.75;;;19.00;99.90;;;;;;5045128;28;20024;-77
2024/01/29 09:59:38;;;;;;;49.30;25.42;;;19.00;99.90;;;;;;5044190;28;20056;-77
2024/01/29 10:02:04;;;;;;;43.70;24.75;;;19.10;99.90;;;;;;5038845;28;20084;-77
2024/01/29 10:04:30;;;;;;;48.78;24.35;;;19.20;99.90;;;;;;5047872;28;20031;-78
2024/01/29 10:06:56;;;;;;;39.85;22.45;;;19.20;99.90;;;;;;5052971;28;20021;-78
2024/01/29 10:09:22;;;;;;;43.97;23.52;;;18.90;99.90;;;;;;5039658;28;20104;-78
2024/01/29 10:11:49;;;;;;;40.97;22.30;;;18.60;99.90;;;;;;5040162;28;20032;-77
2024/01/29 10:14:18;;;;;;;38.03;21.83;;;18.60;99.90;;;;;;5039982;28;20270;-77
2024/01/29 10:16:47;;;;;;;34.53;20.23;;;18.70;99.90;;;;;;5044212;28;20047;-76
2024/01/29 10:19:14;;;;;;;38.13;21.48;;;19.00;99.90;;;;;;5047824;28;20037;-78
2024/01/29 10:21:44;;;;;;;34.30;20.58;;;19.40;99.90;;;;;;5047986;28;20029;-77
2024/01/29 10:24:14;;;;;;;34.10;21.15;;;19.70;99.90;;;;;;5047351;28;20037;-79
2024/01/29 10:26:44;;;;;;;37.75;19.75;;;19.90;99.90;;;;;;5042069;28;20043;-77
2024/01/29 10:29:11;;;;;;;38.83;21.55;;;19.90;99.90;;;;;;5037809;28;20073;-78
2024/01/29 10:31:38;;;;;;;37.67;20.70;;;19.80;99.90;;;;;;5028549;28;20025;-78
2024/01/29 10:34:05;;;;;;;;;;;19.50;99.90;;;;;;5042853;28;20112;-78
2024/01/29 10:36:31;;;;;;;29.50;18.95;;;19.40;99.90;;;;;;5042114;28;20427;-83
2024/01/29 10:39:02;;;;;;;;;;;20.00;99.90;;;;;;5052687;28;20029;-82
2024/01/29 10:41:32;;;;;;;31.33;16.88;;;20.70;99.40;;;;;;5040417;28;19913;-85
2024/01/29 10:44:02;;;;;;;29.70;17.38;;;21.00;98.90;;;;;;5048737;28;20462;-80
2024/01/29 10:46:33;;;;;;;26.20;17.02;;;20.50;99.30;;;;;;5046844;28;20109;-79
2024/01/29 10:49:01;;;;;;;28.52;16.58;;;19.90;99.90;;;;;;5066097;28;20072;-80
2024/01/29 10:51:27;;;;;;;;;;;19.50;99.90;;;;;;5038164;28;20033;-79
2024/01/29 10:53:54;;;;;;;26.10;15.77;;;19.30;99.90;;;;;;5036391;28;19924;-77
2024/01/29 10:56:21;;;;;;;25.45;15.35;;;19.30;99.90;;;;;;5055121;28;20031;-77
2024/01/29 10:58:55;;;;;;;26.20;14.75;;;19.60;99.90;;;;;;5038080;28;20028;-80
2024/01/29 11:01:22;;;;;;;28.88;15.73;;;20.30;99.90;;;;;;5042633;28;20036;-77
2024/01/29 11:03:48;;;;;;;22.30;14.25;;;21.10;99.20;;;;;;5048337;28;20063;-79
2024/01/29 11:06:23;;;;;;;;;;;21.50;98.70;;;;;;5043786;28;20029;-78
2024/01/29 11:08:55;;;;;;;26.02;14.85;;;21.70;98.50;;;;;;5043859;28;19920;-79
2024/01/29 11:11:23;;;;;;;24.90;14.25;;;22.10;98.10;;;;;;5041736;28;20079;-78
2024/01/29 11:13:50;;;;;;;23.88;14.02;;;22.30;97.90;;;;;;5050142;28;20044;-78
2024/01/29 11:16:16;;;;;;;21.40;13.93;;;22.10;98.00;;;;;;5040449;28;20025;-79
2024/01/29 11:18:42;;;;;;;23.45;13.65;;;22.10;98.00;;;;;;5033474;28;20033;-78
2024/01/29 11:21:14;;;;;;;;;;;21.80;98.20;;;;;;5047079;28;20059;-79
2024/01/29 11:23:47;;;;;;;25.38;14.80;;;21.40;98.70;;;;;;5037625;28;19956;-80
2024/01/29 11:26:18;;;;;;;23.25;13.85;;;20.80;99.30;;;;;;5040645;28;20040;-81
2024/01/29 11:28:44;;;;;;;22.08;13.07;;;20.70;99.40;;;;;;5047854;28;20474;-79
2024/01/29 11:31:12;;;;;;;23.30;13.47;;;20.80;99.40;;;;;;5032754;28;20024;-76
2024/01/29 11:33:38;;;;;;;26.55;12.82;;;20.90;99.20;;;;;;5045609;28;20485;-76
2024/01/29 11:36:12;;;;;;;23.00;11.55;;;21.00;99.30;;;;;;5045755;28;20038;-78
2024/01/29 11:38:38;;;;;;;22.77;12.13;;;21.50;98.80;;;;;;5038590;28;20039;-76
2024/01/29 11:41:04;;;;;;;20.48;10.60;;;21.90;98.50;;;;;;5038553;28;20514;-77
2024/01/29 11:43:31;;;;;;;21.48;11.85;;;22.00;98.10;;;;;;5036484;28;20118;-79
2024/01/29 11:45:57;;;;;;;20.33;12.07;;;21.80;98.20;;;;;;5041921;28;20049;-77
2024/01/29 11:48:26;;;;;;;23.33;12.80;;;21.40;98.80;;;;;;5036900;28;20454;-76
2024/01/29 11:50:53;;;;;;;18.85;11.40;;;21.30;99.10;;;;;;5040704;28;20036;-76
2024/01/29 11:53:27;;;;;;;19.63;10.38;;;21.00;99.40;;;;;;5071061;28;20043;-76
2024/01/29 11:55:54;;;;;;;18.15;10.20;;;21.00;99.50;;;;;;5047373;28;20095;-77
2024/01/29 11:58:25;;;;;;;19.38;9.80;;;21.00;99.60;;;;;;5046429;28;20029;-77
2024/01/29 12:00:52;;;;;;;17.67;9.73;;;21.00;99.70;;;;;;5047268;28;20033;-75
2024/01/29 12:03:23;;;;;;;14.65;8.73;;;21.10;99.70;;;;;;5047182;28;20064;-79
2024/01/29 12:05:49;;;;;;;14.40;8.25;;;21.10;99.70;;;;;;5042583;28;20040;-76
2024/01/29 12:08:16;;;;;;;;;;;21.00;99.80;;;;;;5047495;28;20059;-74
2024/01/29 12:10:47;;;;;;;16.30;7.60;;;21.00;99.80;;;;;;5048011;28;19924;-76
2024/01/29 12:13:17;;;;;;;17.25;7.70;;;21.10;99.50;;;;;;5041514;28;20069;-76
2024/01/29 12:15:44;;;;;;;17.90;7.50;;;21.00;99.50;;;;;;5045334;28;20028;-76
2024/01/29 12:18:20;;;;;;;19.35;7.68;;;20.70;99.70;;;;;;5045341;28;20543;-77
2024/01/29 12:20:47;;;;;;;10.93;6.88;;;20.60;99.90;;;;;;5044901;28;20029;-78
2024/01/29 12:23:17;;;;;;;12.68;6.50;;;20.40;99.90;;;;;;5048812;28;20041;-78
2024/01/29 12:25:50;;;;;;;17.85;7.32;;;20.40;99.90;;;;;;5046989;28;20119;-77
2024/01/29 12:28:16;;;;;;;21.65;7.25;;;20.30;99.90;;;;;;5042319;28;20193;-75
2024/01/29 12:30:42;;;;;;;23.70;7.20;;;20.20;99.90;;;;;;5047650;28;20502;-76
2024/01/29 12:33:17;;;;;;;22.10;6.75;;;20.10;99.90;;;;;;5044260;28;20051;-77
2024/01/29 12:35:44;;;;;;;19.92;7.07;;;19.80;99.90;;;;;;5046884;28;20021;-77